createdAt,value
2019-01-04T00:00:47.783Z,2.40
2019-01-04T00:03:17.458Z,2.40
2019-01-04T00:05:47.105Z,2.50
2019-01-04T00:08:16.654Z,2.50
2019-01-04T00:10:46.268Z,2.50
2019-01-04T00:13:15.633Z,2.50
2019-01-04T00:15:45.289Z,2.50
2019-01-04T00:18:14.907Z,2.40
2019-01-04T00:20:44.962Z,2.30
2019-01-04T00:23:14.577Z,2.20
2019-01-04T00:25:44.057Z,2.10
2019-01-04T00:28:13.756Z,2.10
2019-01-04T00:30:43.436Z,2.00
2019-01-04T00:33:13.041Z,2.00
2019-01-04T00:35:42.582Z,1.90
2019-01-04T00:38:12.086Z,1.90
2019-01-04T00:40:41.796Z,1.90
2019-01-04T00:43:11.328Z,2.00
2019-01-04T00:45:41.057Z,2.00
2019-01-04T00:48:10.679Z,2.20
2019-01-04T00:50:40.486Z,2.30
2019-01-04T00:53:09.912Z,2.30
2019-01-04T00:56:19.553Z,2.40
2019-01-04T00:59:40.703Z,2.50
2019-01-04T01:02:42.977Z,2.60
2019-01-04T01:05:59.309Z,2.70
2019-01-04T01:09:27.924Z,2.80
2019-01-04T01:12:34.441Z,2.80
2019-01-04T01:15:52.818Z,2.90
2019-01-04T01:19:02.233Z,2.90
2019-01-04T01:22:21.080Z,2.90
2019-01-04T01:25:26.521Z,2.90
2019-01-04T01:28:38.006Z,2.90
2019-01-04T01:31:40.829Z,2.90
2019-01-04T01:34:46.820Z,2.80
2019-01-04T01:38:00.341Z,2.70
2019-01-04T01:41:12.677Z,2.70
2019-01-04T01:44:26.392Z,2.60
2019-01-04T01:47:20.239Z,2.60
2019-01-04T01:50:16.143Z,2.50
2019-01-04T01:52:49.251Z,2.50
2019-01-04T01:55:18.937Z,2.60
2019-01-04T01:57:48.405Z,2.60
2019-01-04T02:00:17.779Z,2.60
2019-01-04T02:02:47.251Z,2.70
2019-01-04T02:05:16.701Z,2.60
2019-01-04T02:07:46.197Z,2.60
2019-01-04T02:10:15.702Z,2.60
2019-01-04T02:12:45.103Z,2.50
2019-01-04T02:15:15.158Z,2.50
2019-01-04T02:17:44.973Z,2.40
2019-01-04T02:20:14.351Z,2.30
2019-01-04T02:22:43.845Z,2.30
2019-01-04T02:25:13.629Z,2.30
2019-01-04T02:27:43.091Z,2.40
2019-01-04T02:30:12.663Z,2.40
2019-01-04T02:32:42.089Z,2.40
2019-01-04T02:35:11.767Z,2.30
2019-01-04T02:37:41.336Z,2.40
2019-01-04T02:40:10.753Z,2.40
2019-01-04T02:42:40.092Z,2.50
2019-01-04T02:45:09.621Z,2.50
2019-01-04T02:47:39.279Z,2.60
2019-01-04T02:50:08.660Z,2.60
2019-01-04T02:52:38.002Z,2.50
2019-01-04T02:55:07.373Z,2.50
2019-01-04T02:57:36.829Z,2.40
2019-01-04T03:00:07.396Z,2.40
2019-01-04T03:02:37.291Z,2.40
2019-01-04T03:05:06.777Z,2.50
2019-01-04T03:07:36.599Z,2.60
2019-01-04T03:10:09.440Z,2.60
2019-01-04T03:12:38.910Z,2.70
2019-01-04T03:15:08.453Z,2.70
2019-01-04T03:17:38.167Z,2.70
2019-01-04T03:20:07.658Z,2.80
2019-01-04T03:22:37.110Z,2.80
2019-01-04T03:25:06.937Z,2.80
2019-01-04T03:27:36.534Z,2.80
2019-01-04T03:30:06.409Z,2.80
2019-01-04T03:32:36.079Z,2.80
2019-01-04T03:35:06.075Z,2.70
2019-01-04T03:37:35.875Z,2.70
2019-01-04T03:40:06.212Z,2.60
2019-01-04T03:42:35.604Z,2.60
2019-01-04T03:45:05.796Z,2.50
2019-01-04T03:47:35.205Z,2.40
2019-01-04T03:50:05.160Z,2.30
2019-01-04T03:52:35.063Z,2.30
2019-01-04T03:55:04.967Z,2.40
2019-01-04T03:57:34.435Z,2.40
2019-01-04T04:00:04.648Z,2.50
2019-01-04T04:02:34.358Z,2.50
2019-01-04T04:05:05.641Z,2.60
2019-01-04T04:07:35.270Z,2.60
2019-01-04T04:10:05.247Z,2.60
2019-01-04T04:12:34.993Z,2.60
2019-01-04T04:15:04.825Z,2.60
2019-01-04T04:17:34.385Z,2.60
2019-01-04T04:20:06.550Z,2.60
2019-01-04T04:22:36.246Z,2.60
2019-01-04T04:25:05.887Z,2.60
2019-01-04T04:27:35.273Z,2.60
2019-01-04T04:30:05.551Z,2.60
2019-01-04T04:32:35.252Z,2.60
2019-01-04T04:35:05.145Z,2.70
2019-01-04T04:37:34.510Z,2.70
2019-01-04T04:40:03.946Z,2.60
2019-01-04T04:42:33.694Z,2.60
2019-01-04T04:45:03.122Z,2.60
2019-01-04T04:47:32.696Z,2.60
2019-01-04T04:50:02.171Z,2.60
2019-01-04T04:52:31.816Z,2.60
2019-01-04T04:55:01.410Z,2.60
2019-01-04T04:57:30.932Z,2.60
2019-01-04T05:00:00.490Z,2.70
2019-01-04T05:02:29.939Z,2.70
2019-01-04T05:04:59.302Z,2.70
2019-01-04T05:07:29.399Z,2.70
2019-01-04T05:09:58.785Z,2.70
2019-01-04T05:12:28.333Z,2.60
2019-01-04T05:14:57.836Z,2.60
2019-01-04T05:17:27.337Z,2.60
2019-01-04T05:19:56.837Z,2.60
2019-01-04T05:22:26.312Z,2.40
2019-01-04T05:24:55.710Z,2.40
2019-01-04T05:27:25.300Z,2.40
2019-01-04T05:29:54.704Z,2.40
2019-01-04T05:32:24.266Z,2.40
2019-01-04T05:34:53.676Z,2.50
2019-01-04T05:37:23.281Z,2.50
2019-01-04T05:39:52.852Z,2.50
2019-01-04T05:42:22.678Z,2.50
2019-01-04T05:44:52.214Z,2.50
2019-01-04T05:47:21.715Z,2.60
2019-01-04T05:49:51.319Z,2.60
2019-01-04T05:52:20.919Z,2.60
2019-01-04T05:54:50.400Z,2.60
2019-01-04T05:57:19.781Z,2.50
2019-01-04T05:59:49.339Z,2.50
2019-01-04T06:02:18.947Z,2.50
2019-01-04T06:04:48.367Z,2.40
2019-01-04T06:07:17.717Z,2.40
2019-01-04T06:09:47.165Z,2.50
2019-01-04T06:12:16.679Z,2.50
2019-01-04T06:14:46.219Z,2.50
2019-01-04T06:17:15.795Z,2.50
2019-01-04T06:19:45.311Z,2.50
2019-01-04T06:22:15.048Z,2.50
2019-01-04T06:24:45.170Z,2.60
2019-01-04T06:27:14.588Z,2.50
2019-01-04T06:29:43.952Z,2.50
2019-01-04T06:32:13.467Z,2.50
2019-01-04T06:34:43.000Z,2.40
2019-01-04T06:37:12.992Z,2.40
2019-01-04T06:39:42.593Z,2.30
2019-01-04T06:42:12.157Z,2.30
2019-01-04T06:44:41.675Z,2.30
2019-01-04T06:47:27.186Z,2.20
2019-01-04T06:49:56.546Z,2.30
2019-01-04T06:52:26.017Z,2.30
2019-01-04T06:55:43.361Z,2.30
2019-01-04T06:58:12.958Z,2.20
2019-01-04T07:00:42.647Z,2.20
2019-01-04T07:03:12.171Z,2.20
2019-01-04T07:05:41.718Z,2.20
2019-01-04T07:08:11.352Z,2.10
2019-01-04T07:10:40.720Z,2.10
2019-01-04T07:13:10.280Z,2.10
2019-01-04T07:15:39.825Z,2.10
2019-01-04T07:18:09.427Z,2.10
2019-01-04T07:20:39.056Z,2.00
2019-01-04T07:23:08.660Z,2.00
2019-01-04T07:25:38.018Z,1.90
2019-01-04T07:28:07.903Z,1.90
2019-01-04T07:30:37.327Z,2.00
2019-01-04T07:33:06.666Z,1.80
2019-01-04T07:35:36.157Z,1.60
2019-01-04T07:38:05.700Z,1.50
2019-01-04T07:40:35.207Z,1.50
2019-01-04T07:43:04.624Z,1.60
2019-01-04T07:45:33.999Z,1.80
2019-01-04T07:48:03.574Z,1.90
2019-01-04T07:50:32.893Z,2.10
2019-01-04T07:53:02.458Z,2.20
2019-01-04T07:55:32.206Z,2.30
2019-01-04T07:58:01.585Z,2.30
2019-01-04T08:00:31.113Z,2.40
2019-01-04T08:03:29.244Z,2.50
2019-01-04T08:06:01.038Z,2.50
2019-01-04T08:08:30.769Z,2.60
2019-01-04T08:11:00.432Z,2.60
2019-01-04T08:13:29.957Z,2.60
2019-01-04T08:15:59.387Z,2.60
2019-01-04T08:18:28.871Z,2.60
2019-01-04T08:20:58.510Z,2.60
2019-01-04T08:23:28.028Z,2.50
2019-01-04T08:25:57.481Z,2.50
2019-01-04T08:28:27.086Z,2.50
2019-01-04T08:30:56.658Z,2.50
2019-01-04T08:33:26.438Z,2.50
2019-01-04T08:35:55.963Z,2.60
2019-01-04T08:38:25.508Z,2.70
2019-01-04T08:40:54.979Z,2.70
2019-01-04T08:43:24.540Z,2.80
2019-01-04T08:45:53.997Z,2.80
2019-01-04T08:48:23.353Z,2.90
2019-01-04T08:50:52.970Z,2.90
2019-01-04T08:53:58.833Z,3.00
2019-01-04T08:56:30.283Z,3.10
2019-01-04T08:59:00.735Z,3.10
2019-01-04T09:01:30.196Z,3.20
2019-01-04T09:04:00.453Z,3.20
2019-01-04T09:06:29.885Z,3.30
2019-01-04T09:08:59.811Z,3.30
2019-01-04T09:11:29.417Z,3.30
2019-01-04T09:13:58.987Z,3.30
2019-01-04T09:16:28.652Z,3.40
2019-01-04T09:18:58.442Z,3.40
2019-01-04T09:21:28.199Z,3.40
2019-01-04T09:23:57.937Z,3.40
2019-01-04T09:26:27.538Z,3.50
2019-01-04T09:28:57.009Z,3.50
2019-01-04T09:31:26.676Z,3.50
2019-01-04T09:33:57.105Z,3.60
2019-01-04T09:36:26.897Z,3.60
2019-01-04T09:38:56.524Z,3.60
2019-01-04T09:41:42.929Z,3.60
2019-01-04T09:44:12.570Z,3.70
2019-01-04T09:46:41.969Z,3.80
2019-01-04T09:49:11.451Z,3.80
2019-01-04T09:51:41.878Z,3.90
2019-01-04T09:54:11.376Z,4.00
2019-01-04T09:56:42.493Z,4.00
2019-01-04T09:59:11.858Z,4.10
2019-01-04T10:01:41.183Z,4.10
2019-01-04T10:04:10.558Z,4.20
2019-01-04T10:06:40.020Z,4.30
2019-01-04T10:09:09.467Z,4.30
2019-01-04T10:11:38.915Z,4.20
2019-01-04T10:14:08.439Z,4.20
2019-01-04T10:16:38.072Z,4.20
2019-01-04T10:19:07.666Z,4.20
2019-01-04T10:21:37.069Z,4.30
2019-01-04T10:24:06.661Z,4.30
2019-01-04T10:26:36.238Z,4.30
2019-01-04T10:29:05.833Z,4.20
2019-01-04T10:31:35.409Z,4.20
2019-01-04T10:34:04.826Z,4.20
2019-01-04T10:36:34.379Z,4.20
2019-01-04T10:39:05.796Z,4.20
2019-01-04T10:41:35.443Z,4.20
2019-01-04T10:44:05.008Z,4.30
2019-01-04T10:46:34.849Z,4.30
2019-01-04T10:49:04.260Z,4.30
2019-01-04T10:51:33.609Z,4.20
2019-01-04T10:54:03.243Z,4.20
2019-01-04T10:56:32.646Z,4.20
2019-01-04T10:59:02.351Z,4.20
2019-01-04T11:01:31.951Z,4.20
2019-01-04T11:04:01.513Z,4.10
2019-01-04T11:06:31.055Z,4.10
2019-01-04T11:09:00.657Z,4.10
2019-01-04T11:11:30.097Z,4.10
2019-01-04T11:13:59.734Z,4.10
2019-01-04T11:16:29.328Z,4.20
2019-01-04T11:18:58.855Z,4.30
2019-01-04T11:21:28.291Z,4.30
2019-01-04T11:24:24.692Z,4.40
2019-01-04T11:27:02.061Z,4.50
2019-01-04T11:30:08.880Z,4.60
2019-01-04T11:33:31.976Z,4.70
2019-01-04T11:37:12.576Z,4.80
2019-01-04T11:40:20.112Z,4.90
2019-01-04T11:43:33.480Z,4.90
2019-01-04T11:46:31.840Z,4.90
2019-01-04T11:49:29.693Z,4.90
2019-01-04T11:52:16.924Z,5.00
2019-01-04T11:54:46.679Z,5.00
2019-01-04T11:57:16.087Z,5.00
2019-01-04T11:59:45.606Z,5.00
2019-01-04T12:02:15.046Z,5.00
2019-01-04T12:04:44.732Z,5.10
2019-01-04T12:07:14.315Z,5.20
2019-01-04T12:09:43.980Z,5.20
2019-01-04T12:12:13.671Z,5.20
2019-01-04T12:14:43.536Z,5.20
2019-01-04T12:17:13.299Z,5.20
2019-01-04T12:19:42.911Z,5.20
2019-01-04T12:22:12.470Z,5.20
2019-01-04T12:24:42.015Z,5.30
2019-01-04T12:27:11.506Z,5.30
2019-01-04T12:29:41.019Z,5.30
2019-01-04T12:32:10.417Z,5.40
2019-01-04T12:34:39.996Z,5.40
2019-01-04T12:37:09.324Z,5.40
2019-01-04T12:39:38.747Z,5.50
2019-01-04T12:42:08.279Z,5.50
2019-01-04T12:44:37.822Z,5.50
2019-01-04T12:47:07.382Z,5.60
2019-01-04T12:49:36.826Z,5.60
2019-01-04T12:52:06.228Z,5.70
2019-01-04T12:54:35.623Z,5.60
2019-01-04T12:57:05.689Z,5.60
2019-01-04T12:59:35.051Z,5.60
2019-01-04T13:02:04.682Z,5.60
2019-01-04T13:04:36.129Z,5.60
2019-01-04T13:07:05.479Z,5.50
2019-01-04T13:09:34.840Z,5.50
2019-01-04T13:12:04.429Z,5.40
2019-01-04T13:14:33.820Z,5.40
2019-01-04T13:17:03.316Z,5.40
2019-01-04T13:19:32.866Z,5.40
2019-01-04T13:22:02.398Z,5.40
2019-01-04T13:24:31.753Z,5.30
2019-01-04T13:27:01.417Z,5.20
2019-01-04T13:29:30.845Z,5.20
2019-01-04T13:32:00.359Z,5.20
2019-01-04T13:34:30.178Z,5.20
2019-01-04T13:36:59.597Z,5.20
2019-01-04T13:39:29.325Z,5.20
2019-01-04T13:41:58.745Z,5.30
2019-01-04T13:44:28.172Z,5.30
2019-01-04T13:46:57.651Z,5.30
2019-01-04T13:49:27.254Z,5.20
2019-01-04T13:51:56.779Z,5.20
2019-01-04T13:54:26.295Z,5.20
2019-01-04T13:56:55.981Z,5.20
2019-01-04T13:59:25.403Z,5.20
2019-01-04T14:01:54.932Z,5.20
2019-01-04T14:04:24.324Z,5.20
2019-01-04T14:06:53.735Z,5.20
2019-01-04T14:09:23.238Z,5.20
2019-01-04T14:11:53.214Z,5.10
2019-01-04T14:14:22.788Z,5.10
2019-01-04T14:16:52.230Z,5.10
2019-01-04T14:19:22.165Z,5.10
2019-01-04T14:21:51.617Z,5.00
2019-01-04T14:24:21.250Z,4.90
2019-01-04T14:26:50.811Z,4.90
2019-01-04T14:29:20.295Z,4.90
2019-01-04T14:31:49.682Z,4.90
2019-01-04T14:34:19.198Z,4.90
2019-01-04T14:36:48.858Z,4.90
2019-01-04T14:39:18.236Z,4.90
2019-01-04T14:41:47.915Z,4.90
2019-01-04T14:44:17.450Z,5.00
2019-01-04T14:46:46.815Z,5.00
2019-01-04T14:49:16.340Z,5.00
2019-01-04T14:51:45.842Z,5.00
2019-01-04T14:54:15.937Z,4.80
2019-01-04T14:56:45.791Z,4.70
2019-01-04T14:59:15.282Z,4.60
2019-01-04T15:01:45.107Z,4.70
2019-01-04T15:04:14.760Z,4.70
2019-01-04T15:06:44.122Z,4.70
2019-01-04T15:09:13.805Z,4.70
2019-01-04T15:11:43.177Z,4.70
2019-01-04T15:14:12.628Z,4.70
2019-01-04T15:16:42.114Z,4.70
2019-01-04T15:19:11.733Z,4.70
2019-01-04T15:21:41.164Z,4.70
2019-01-04T15:24:10.565Z,4.60
2019-01-04T15:26:40.227Z,4.60
2019-01-04T15:29:09.593Z,4.50
2019-01-04T15:31:40.226Z,4.40
2019-01-04T15:34:09.616Z,4.40
2019-01-04T15:36:39.187Z,4.30
2019-01-04T15:39:09.265Z,4.30
2019-01-04T15:41:39.014Z,4.30
2019-01-04T15:44:08.674Z,4.40
2019-01-04T15:46:38.052Z,4.30
2019-01-04T15:49:07.410Z,4.30
2019-01-04T15:51:36.778Z,4.30
2019-01-04T15:54:06.245Z,4.30
2019-01-04T15:56:35.626Z,4.20
2019-01-04T15:59:05.119Z,4.10
2019-01-04T16:01:34.602Z,4.10
2019-01-04T16:04:03.931Z,4.10
2019-01-04T16:06:33.285Z,4.10
2019-01-04T16:09:04.618Z,4.10
2019-01-04T16:11:34.231Z,4.10
2019-01-04T16:14:03.987Z,4.10
2019-01-04T16:16:33.487Z,4.20
2019-01-04T16:19:03.013Z,4.30
2019-01-04T16:21:32.495Z,4.30
2019-01-04T16:24:02.039Z,4.40
2019-01-04T16:26:31.624Z,4.50
2019-01-04T16:29:01.275Z,4.50
2019-01-04T16:31:30.729Z,4.50
2019-01-04T16:34:00.454Z,4.50
2019-01-04T16:36:30.389Z,4.50
2019-01-04T16:39:00.136Z,4.50
2019-01-04T16:41:29.790Z,4.50
2019-01-04T16:44:07.162Z,4.40
2019-01-04T16:46:32.191Z,4.30
2019-01-04T16:49:01.668Z,4.30
2019-01-04T16:51:31.885Z,4.20
2019-01-04T16:54:01.506Z,4.10
2019-01-04T16:56:31.404Z,4.10
2019-01-04T16:59:01.028Z,4.10
2019-01-04T17:01:30.601Z,4.10
2019-01-04T17:04:00.005Z,4.10
2019-01-04T17:06:29.349Z,4.10
2019-01-04T17:08:58.858Z,4.10
2019-01-04T17:11:28.495Z,4.10
2019-01-04T17:13:58.001Z,4.00
2019-01-04T17:16:27.579Z,4.00
2019-01-04T17:18:57.232Z,4.10
2019-01-04T17:21:26.829Z,4.10
2019-01-04T17:23:56.219Z,4.10
2019-01-04T17:26:25.746Z,4.10
2019-01-04T17:28:57.464Z,4.00
2019-01-04T17:31:26.839Z,3.90
2019-01-04T17:33:56.348Z,3.90
2019-01-04T17:36:26.812Z,3.90
2019-01-04T17:38:56.376Z,3.90
2019-01-04T17:41:25.904Z,3.90
2019-01-04T17:43:55.617Z,4.00
2019-01-04T17:46:26.891Z,4.00
2019-01-04T17:48:56.645Z,4.00
2019-01-04T17:51:26.061Z,4.00
2019-01-04T17:53:55.600Z,3.90
2019-01-04T17:56:25.117Z,3.90
2019-01-04T17:58:55.978Z,3.90
2019-01-04T18:01:25.911Z,3.90
2019-01-04T18:03:58.087Z,3.80
2019-01-04T18:06:27.626Z,3.80
2019-01-04T18:08:57.101Z,3.90
2019-01-04T18:11:26.502Z,3.90
2019-01-04T18:13:55.993Z,3.90
2019-01-04T18:16:25.523Z,3.80
2019-01-04T18:18:55.124Z,3.80
2019-01-04T18:21:24.638Z,3.90
2019-01-04T18:23:54.040Z,3.90
2019-01-04T18:26:24.451Z,3.90
2019-01-04T18:28:54.170Z,3.90
2019-01-04T18:31:23.908Z,4.00
2019-01-04T18:33:53.733Z,4.00
2019-01-04T18:36:23.089Z,4.00
2019-01-04T18:38:52.543Z,4.10
2019-01-04T18:41:22.680Z,4.10
2019-01-04T18:43:52.419Z,4.00
2019-01-04T18:46:21.868Z,4.00
2019-01-04T18:48:51.337Z,4.00
2019-01-04T18:51:20.876Z,4.00
2019-01-04T18:53:50.348Z,4.00
2019-01-04T18:56:20.074Z,4.00
2019-01-04T18:58:49.584Z,4.00
2019-01-04T19:01:19.139Z,4.00
2019-01-04T19:03:48.544Z,4.00
2019-01-04T19:06:18.326Z,4.00
2019-01-04T19:08:47.717Z,4.00
2019-01-04T19:11:17.190Z,3.90
2019-01-04T19:13:46.756Z,3.90
2019-01-04T19:16:16.304Z,3.90
2019-01-04T19:18:45.787Z,3.90
2019-01-04T19:21:15.285Z,3.90
2019-01-04T19:23:44.932Z,3.90
2019-01-04T19:26:14.400Z,3.90
2019-01-04T19:28:44.006Z,3.90
2019-01-04T19:31:13.489Z,3.90
2019-01-04T19:33:43.138Z,3.90
2019-01-04T19:36:12.790Z,4.00
2019-01-04T19:38:42.406Z,3.90
2019-01-04T19:41:11.765Z,3.90
2019-01-04T19:43:41.377Z,4.00
2019-01-04T19:46:11.253Z,3.90
2019-01-04T19:48:40.704Z,3.80
2019-01-04T19:51:10.104Z,3.80
2019-01-04T19:53:39.494Z,3.70
2019-01-04T19:56:09.014Z,3.60
2019-01-04T19:58:38.453Z,3.50
2019-01-04T20:01:08.246Z,3.50
2019-01-04T20:03:38.003Z,3.50
2019-01-04T20:07:02.273Z,3.40
2019-01-04T20:11:02.380Z,3.40
2019-01-04T20:14:26.748Z,3.30
2019-01-04T20:17:24.312Z,3.10
2019-01-04T20:20:26.275Z,3.10
2019-01-04T20:23:21.795Z,3.00
2019-01-04T20:26:09.051Z,3.00
2019-01-04T20:29:08.217Z,3.00
2019-01-04T20:31:56.295Z,3.00
2019-01-04T20:34:54.401Z,3.00
2019-01-04T20:37:41.582Z,3.00
2019-01-04T20:40:36.185Z,3.00
2019-01-04T20:43:23.599Z,3.10
2019-01-04T20:46:27.462Z,3.20
2019-01-04T20:49:14.458Z,3.20
2019-01-04T20:52:11.113Z,3.20
2019-01-04T20:54:58.440Z,3.20
2019-01-04T20:57:43.464Z,3.10
2019-01-04T21:00:31.341Z,3.10
2019-01-04T21:03:31.750Z,3.20
2019-01-04T21:06:35.461Z,3.20
2019-01-04T21:09:25.074Z,3.20
2019-01-04T21:12:22.587Z,3.10
2019-01-04T21:15:13.832Z,3.10
2019-01-04T21:18:14.339Z,3.10
2019-01-04T21:21:05.462Z,3.10
2019-01-04T21:24:09.015Z,3.10
2019-01-04T21:27:06.210Z,3.10
2019-01-04T21:29:48.693Z,3.20
2019-01-04T21:32:36.212Z,3.20
2019-01-04T21:35:23.537Z,3.10
2019-01-04T21:38:21.165Z,3.10
2019-01-04T21:41:10.010Z,3.20
2019-01-04T21:44:13.093Z,3.10
2019-01-04T21:47:07.718Z,3.20
2019-01-04T21:49:59.417Z,3.20
2019-01-04T21:52:50.795Z,3.20
2019-01-04T21:55:35.190Z,3.10
2019-01-04T21:58:29.929Z,3.10
2019-01-04T22:01:23.271Z,3.10
2019-01-04T22:04:14.610Z,3.10
2019-01-04T22:07:03.023Z,3.20
2019-01-04T22:10:00.203Z,3.20
2019-01-04T22:13:04.034Z,3.30
2019-01-04T22:16:00.448Z,3.20
2019-01-04T22:19:01.326Z,3.10
2019-01-04T22:21:58.815Z,3.10
2019-01-04T22:24:39.744Z,3.00
2019-01-04T22:27:40.708Z,3.10
2019-01-04T22:30:32.123Z,3.00
2019-01-04T22:33:32.557Z,3.10
2019-01-04T22:36:33.005Z,3.10
2019-01-04T22:39:36.263Z,3.20
2019-01-04T22:42:23.430Z,3.20
2019-01-04T22:45:06.096Z,3.30
2019-01-04T22:48:00.495Z,3.30
2019-01-04T22:50:47.640Z,3.30
2019-01-04T22:53:54.221Z,3.30
2019-01-04T22:56:41.645Z,3.30
2019-01-04T22:59:36.323Z,3.40
2019-01-04T23:02:24.689Z,3.30
2019-01-04T23:05:11.797Z,3.30
2019-01-04T23:08:09.189Z,3.30
2019-01-04T23:11:15.958Z,3.30
2019-01-04T23:14:06.873Z,3.20
2019-01-04T23:16:57.940Z,3.20
2019-01-04T23:19:52.765Z,3.10
2019-01-04T23:23:16.647Z,3.00
2019-01-04T23:26:03.725Z,3.00
2019-01-04T23:29:07.165Z,3.00
2019-01-04T23:31:54.034Z,2.90
2019-01-04T23:34:48.615Z,2.90
2019-01-04T23:37:49.421Z,2.90
2019-01-04T23:40:36.637Z,2.90
2019-01-04T23:43:32.462Z,3.00
2019-01-04T23:46:23.317Z,2.90
2019-01-04T23:49:10.546Z,2.90
2019-01-04T23:52:01.846Z,2.90
2019-01-04T23:54:56.194Z,2.90
2019-01-04T23:57:43.520Z,2.90
